createdAt,value
2018-04-29T00:00:45.521Z,52.60
2018-04-29T00:03:13.614Z,52.60
2018-04-29T00:05:41.063Z,52.90
2018-04-29T00:08:08.499Z,53.40
2018-04-29T00:13:04.266Z,54.00
2018-04-29T00:15:31.693Z,54.10
2018-04-29T00:17:59.075Z,53.90
2018-04-29T00:20:26.631Z,54.40
2018-04-29T00:22:54.013Z,54.20
2018-04-29T00:25:21.482Z,54.00
2018-04-29T00:27:49.862Z,53.70
2018-04-29T00:30:17.226Z,56.20
2018-04-29T00:32:44.646Z,56.60
2018-04-29T00:35:12.023Z,54.60
2018-04-29T00:37:40.249Z,55.20
2018-04-29T00:42:36.674Z,55.40
2018-04-29T00:45:04.803Z,54.50
2018-04-29T00:47:32.930Z,55.50
2018-04-29T00:50:01.068Z,58.70
2018-04-29T00:54:56.702Z,56.00
2018-04-29T00:57:24.167Z,56.30
2018-04-29T00:59:52.394Z,56.90
2018-04-29T01:02:19.899Z,59.40
2018-04-29T01:09:44.172Z,58.10
2018-04-29T01:12:11.572Z,57.70
2018-04-29T01:14:39.699Z,57.30
2018-04-29T01:19:35.322Z,56.90
2018-04-29T01:22:02.708Z,56.50
2018-04-29T01:24:30.943Z,55.90
2018-04-29T01:26:59.094Z,55.80
2018-04-29T01:29:26.474Z,56.20
2018-04-29T01:31:53.873Z,56.30
2018-04-29T01:34:22.106Z,56.30
2018-04-29T01:36:49.483Z,54.20
2018-04-29T01:39:16.933Z,57.50
2018-04-29T01:41:45.186Z,58.60
2018-04-29T01:44:12.584Z,57.90
2018-04-29T01:46:40.190Z,58.00
2018-04-29T01:49:07.666Z,56.80
2018-04-29T01:51:35.062Z,54.90
2018-04-29T01:54:02.590Z,54.40
2018-04-29T01:56:30.011Z,53.30
2018-04-29T01:58:58.163Z,53.00
2018-04-29T02:01:25.538Z,52.60
2018-04-29T02:03:52.932Z,52.70
2018-04-29T02:08:48.934Z,54.50
2018-04-29T02:11:16.346Z,54.70
2018-04-29T02:16:12.027Z,52.20
2018-04-29T02:21:08.393Z,52.00
2018-04-29T02:26:04.860Z,51.00
2018-04-29T02:28:32.550Z,50.60
2018-04-29T02:30:59.925Z,50.20
2018-04-29T02:33:27.368Z,50.20
2018-04-29T02:35:54.718Z,50.50
2018-04-29T02:38:22.134Z,50.20
2018-04-29T02:43:17.978Z,50.20
2018-04-29T02:45:46.123Z,49.90
2018-04-29T02:48:13.491Z,49.70
2018-04-29T02:50:41.598Z,51.90
2018-04-29T02:55:37.984Z,52.00
2018-04-29T02:58:06.085Z,49.90
2018-04-29T03:03:01.782Z,48.90
2018-04-29T03:05:29.151Z,48.80
2018-04-29T03:07:57.277Z,49.50
2018-04-29T03:12:52.940Z,50.50
2018-04-29T03:17:48.563Z,50.20
2018-04-29T03:20:16.714Z,50.10
2018-04-29T03:22:44.120Z,49.80
2018-04-29T03:25:12.311Z,49.90
2018-04-29T03:27:39.702Z,50.70
2018-04-29T03:30:07.331Z,50.50
2018-04-29T03:32:34.741Z,49.70
2018-04-29T03:35:02.990Z,50.30
2018-04-29T03:37:30.386Z,50.50
2018-04-29T03:42:26.148Z,50.30
2018-04-29T03:44:53.532Z,51.20
2018-04-29T03:47:21.726Z,52.10
2018-04-29T03:49:49.055Z,50.90
2018-04-29T03:52:16.418Z,51.60
2018-04-29T03:54:43.810Z,51.60
2018-04-29T03:57:24.099Z,51.90
2018-04-29T04:00:04.406Z,51.80
2018-04-29T04:05:05.958Z,50.20
2018-04-29T04:07:34.157Z,49.60
2018-04-29T04:12:30.822Z,49.40
2018-04-29T04:17:26.623Z,49.60
2018-04-29T04:19:54.781Z,51.10
2018-04-29T04:24:51.270Z,52.10
2018-04-29T04:27:18.679Z,52.80
2018-04-29T04:29:47.825Z,53.20
2018-04-29T04:32:15.984Z,52.90
2018-04-29T04:37:12.187Z,53.20
2018-04-29T04:39:40.408Z,53.10
2018-04-29T04:42:07.797Z,52.70
2018-04-29T04:44:35.257Z,52.40
2018-04-29T04:47:02.684Z,52.50
2018-04-29T04:49:30.128Z,52.70
2018-04-29T04:51:58.309Z,52.90
2018-04-29T04:56:54.758Z,53.70
2018-04-29T05:01:50.816Z,53.40
2018-04-29T05:04:18.206Z,53.60
2018-04-29T05:09:14.405Z,53.60
2018-04-29T05:11:41.906Z,53.70
2018-04-29T05:14:10.066Z,54.20
2018-04-29T05:16:37.423Z,54.30
2018-04-29T05:24:01.640Z,50.60
2018-04-29T05:28:58.117Z,48.40
2018-04-29T05:31:25.597Z,49.10
2018-04-29T05:33:53.757Z,48.90
2018-04-29T05:36:21.221Z,50.10
2018-04-29T05:38:48.661Z,49.80
2018-04-29T05:41:16.792Z,50.00
2018-04-29T05:43:44.182Z,50.10
2018-04-29T05:46:11.691Z,50.70
2018-04-29T05:48:39.892Z,50.10
2018-04-29T05:51:07.379Z,48.70
2018-04-29T05:53:34.793Z,47.70
2018-04-29T05:58:30.591Z,46.20
2018-04-29T06:00:58.745Z,46.40
2018-04-29T06:03:26.204Z,45.80
2018-04-29T06:05:53.611Z,45.90
2018-04-29T06:10:49.770Z,45.40
2018-04-29T06:13:17.902Z,45.30
2018-04-29T06:15:45.276Z,44.90
2018-04-29T06:20:41.901Z,44.00
2018-04-29T06:23:10.993Z,43.90
2018-04-29T06:25:38.386Z,44.90
2018-04-29T06:28:05.782Z,43.90
2018-04-29T06:30:33.223Z,43.90
2018-04-29T06:35:28.919Z,44.00
2018-04-29T06:37:57.096Z,43.30
2018-04-29T06:40:24.498Z,42.50
2018-04-29T06:47:49.296Z,41.90
2018-04-29T06:50:17.458Z,41.50
2018-04-29T06:52:44.824Z,41.40
2018-04-29T06:55:12.995Z,41.40
2018-04-29T06:57:41.183Z,41.20
2018-04-29T07:02:37.172Z,40.20
2018-04-29T07:05:04.771Z,40.20
2018-04-29T07:10:00.465Z,41.00
2018-04-29T07:12:27.913Z,40.20
2018-04-29T07:17:24.608Z,39.60
2018-04-29T07:22:20.606Z,39.40
2018-04-29T07:24:47.941Z,38.90
2018-04-29T07:29:44.478Z,38.10
2018-04-29T07:32:12.729Z,37.70
2018-04-29T07:34:40.119Z,36.90
2018-04-29T07:37:08.331Z,37.00
2018-04-29T07:39:36.563Z,36.30
2018-04-29T07:44:32.720Z,36.00
2018-04-29T07:47:00.103Z,35.80
2018-04-29T07:49:27.538Z,35.60
2018-04-29T07:51:55.655Z,34.90
2018-04-29T07:54:23.146Z,34.50
2018-04-29T07:56:51.310Z,34.30
2018-04-29T08:01:47.723Z,33.90
2018-04-29T08:06:43.613Z,33.90
2018-04-29T08:11:39.160Z,33.70
2018-04-29T08:14:06.546Z,33.20
2018-04-29T08:16:34.038Z,33.50
2018-04-29T08:19:01.510Z,32.80
2018-04-29T08:21:28.915Z,32.00
2018-04-29T08:23:56.320Z,32.80
2018-04-29T08:26:23.798Z,32.60
2018-04-29T08:28:51.919Z,32.30
2018-04-29T08:33:47.615Z,31.90
2018-04-29T08:36:15.851Z,32.00
2018-04-29T08:38:43.417Z,31.30
2018-04-29T08:41:10.792Z,30.50
2018-04-29T08:43:38.206Z,30.60
2018-04-29T08:48:33.980Z,30.40
2018-04-29T08:53:29.790Z,30.50
2018-04-29T08:55:57.408Z,30.80
2018-04-29T08:58:24.715Z,30.30
2018-04-29T09:03:20.651Z,29.20
2018-04-29T09:05:48.138Z,29.40
2018-04-29T09:08:16.419Z,29.20
2018-04-29T09:10:43.986Z,28.90
2018-04-29T09:13:11.337Z,29.00
2018-04-29T09:15:38.672Z,28.40
2018-04-29T09:18:06.747Z,28.20
2018-04-29T09:20:34.232Z,28.70
2018-04-29T09:23:01.608Z,27.40
2018-04-29T09:25:29.815Z,27.50
2018-04-29T09:27:57.271Z,27.50
2018-04-29T09:30:24.777Z,27.80
2018-04-29T09:32:52.191Z,27.40
2018-04-29T09:35:19.641Z,27.40
2018-04-29T09:37:47.040Z,27.00
2018-04-29T09:40:14.554Z,26.30
2018-04-29T09:45:11.205Z,25.70
2018-04-29T09:47:39.338Z,26.10
2018-04-29T09:50:06.814Z,25.90
2018-04-29T09:57:31.569Z,25.20
2018-04-29T09:59:59.026Z,25.50
2018-04-29T10:02:26.477Z,24.80
2018-04-29T10:04:54.655Z,24.90
2018-04-29T10:07:22.902Z,24.40
2018-04-29T10:09:50.259Z,24.60
2018-04-29T10:12:17.711Z,24.60
2018-04-29T10:14:45.835Z,24.10
2018-04-29T10:19:41.636Z,23.30
2018-04-29T10:22:09.763Z,23.30
2018-04-29T10:24:37.261Z,22.90
2018-04-29T10:27:05.673Z,22.90
2018-04-29T10:29:33.146Z,22.90
2018-04-29T10:32:00.810Z,22.90
2018-04-29T10:37:06.326Z,22.70
2018-04-29T10:42:02.168Z,22.10
2018-04-29T10:44:29.568Z,22.10
2018-04-29T10:46:57.773Z,21.80
2018-04-29T10:49:25.968Z,21.90
2018-04-29T10:54:27.121Z,21.80
2018-04-29T10:56:55.443Z,21.80
2018-04-29T10:59:22.876Z,21.70
2018-04-29T11:04:19.471Z,21.40
2018-04-29T11:06:47.511Z,20.80
2018-04-29T11:09:15.008Z,21.10
2018-04-29T11:11:43.203Z,21.00
2018-04-29T11:16:39.822Z,20.80
2018-04-29T11:19:07.303Z,20.80
2018-04-29T11:21:36.530Z,20.70
2018-04-29T11:24:05.815Z,20.80
2018-04-29T11:26:33.951Z,20.50
2018-04-29T11:31:30.843Z,20.80
2018-04-29T11:33:59.290Z,20.70
2018-04-29T11:36:26.691Z,20.40
2018-04-29T11:38:54.157Z,20.10
2018-04-29T11:41:21.595Z,20.10
2018-04-29T11:43:49.119Z,20.00
2018-04-29T11:46:16.600Z,20.60
2018-04-29T11:48:44.128Z,20.40
2018-04-29T11:51:12.657Z,20.80
2018-04-29T11:53:39.995Z,20.30
2018-04-29T11:56:08.210Z,20.50
2018-04-29T11:58:36.399Z,21.00
2018-04-29T12:01:06.555Z,20.50
2018-04-29T12:03:35.676Z,20.30
2018-04-29T12:06:05.278Z,20.40
2018-04-29T12:08:37.906Z,20.20
2018-04-29T12:11:08.115Z,20.00
2018-04-29T12:13:38.411Z,20.20
2018-04-29T12:16:06.015Z,20.40
2018-04-29T12:18:33.546Z,20.00
2018-04-29T12:21:00.979Z,20.10
2018-04-29T12:23:29.355Z,20.40
2018-04-29T12:25:57.579Z,20.10
2018-04-29T12:28:25.786Z,20.40
2018-04-29T12:30:53.339Z,20.00
2018-04-29T12:33:20.819Z,19.50
2018-04-29T12:35:48.233Z,20.10
2018-04-29T12:38:15.660Z,19.70
2018-04-29T12:40:44.835Z,19.90
2018-04-29T12:43:12.569Z,20.20
2018-04-29T12:45:40.069Z,19.90
2018-04-29T12:48:09.272Z,19.40
2018-04-29T12:50:36.717Z,19.90
2018-04-29T12:53:07.881Z,20.50
2018-04-29T12:55:35.455Z,21.00
2018-04-29T12:58:02.943Z,22.20
2018-04-29T13:00:31.290Z,22.00
2018-04-29T13:03:03.206Z,22.20
2018-04-29T13:05:31.366Z,21.50
2018-04-29T13:07:58.838Z,20.80
2018-04-29T13:10:26.278Z,20.20
2018-04-29T13:12:53.895Z,19.90
2018-04-29T13:15:22.274Z,20.00
2018-04-29T13:17:50.483Z,20.70
2018-04-29T13:20:17.868Z,20.80
2018-04-29T13:22:46.050Z,19.90
2018-04-29T13:25:13.488Z,19.80
2018-04-29T13:27:41.970Z,20.10
2018-04-29T13:30:09.575Z,20.90
2018-04-29T13:32:37.850Z,20.60
2018-04-29T13:35:05.393Z,20.70
2018-04-29T13:37:33.607Z,20.40
2018-04-29T13:40:01.104Z,20.40
2018-04-29T13:42:28.583Z,20.50
2018-04-29T13:44:56.213Z,20.20
2018-04-29T13:47:23.720Z,20.60
2018-04-29T13:49:54.658Z,20.40
2018-04-29T13:52:23.233Z,21.00
2018-04-29T13:54:50.690Z,20.90
2018-04-29T13:57:22.793Z,20.80
2018-04-29T13:59:50.374Z,21.00
2018-04-29T14:02:17.855Z,21.20
2018-04-29T14:04:45.341Z,20.30
2018-04-29T14:07:17.190Z,21.20
2018-04-29T14:09:45.927Z,20.80
2018-04-29T14:12:13.519Z,21.20
2018-04-29T14:14:41.074Z,20.80
2018-04-29T14:17:09.526Z,20.60
2018-04-29T14:19:37.046Z,20.00
2018-04-29T14:22:06.186Z,19.80
2018-04-29T14:24:35.277Z,19.80
2018-04-29T14:27:02.975Z,19.90
2018-04-29T14:29:32.243Z,20.10
2018-04-29T14:32:00.801Z,20.60
2018-04-29T14:34:31.785Z,20.90
2018-04-29T14:37:03.273Z,20.70
2018-04-29T14:39:33.514Z,20.70
2018-04-29T14:42:01.139Z,21.10
2018-04-29T14:44:31.205Z,20.90
2018-04-29T14:47:01.080Z,21.10
2018-04-29T14:49:28.575Z,20.80
2018-04-29T14:51:55.967Z,21.50
2018-04-29T14:54:29.190Z,21.20
2018-04-29T14:56:56.672Z,21.40
2018-04-29T14:59:24.434Z,21.70
2018-04-29T15:01:52.809Z,22.60
2018-04-29T15:04:20.307Z,21.60
2018-04-29T15:06:53.206Z,21.80
2018-04-29T15:09:21.845Z,21.90
2018-04-29T15:11:49.429Z,22.10
2018-04-29T15:14:19.428Z,21.90
2018-04-29T15:16:47.993Z,22.30
2018-04-29T15:19:15.571Z,22.70
2018-04-29T15:21:43.039Z,22.70
2018-04-29T15:24:12.276Z,23.00
2018-04-29T15:26:41.634Z,23.80
2018-04-29T15:29:09.856Z,23.80
2018-04-29T15:31:37.370Z,24.30
2018-04-29T15:34:04.864Z,24.40
2018-04-29T15:36:32.444Z,24.70
2018-04-29T15:39:02.986Z,25.10
2018-04-29T15:41:31.504Z,24.90
2018-04-29T15:43:59.093Z,24.80
2018-04-29T15:46:27.312Z,25.00
2018-04-29T15:48:54.790Z,24.90
2018-04-29T15:51:23.074Z,25.00
2018-04-29T15:53:51.463Z,25.00
2018-04-29T15:56:19.714Z,24.80
2018-04-29T15:58:47.292Z,25.30
2018-04-29T16:01:14.800Z,25.60
2018-04-29T16:03:42.342Z,25.50
2018-04-29T16:06:11.863Z,25.60
2018-04-29T16:08:39.515Z,25.90
2018-04-29T16:11:07.048Z,25.90
2018-04-29T16:13:35.299Z,26.00
2018-04-29T16:16:02.858Z,26.20
2018-04-29T16:18:30.309Z,26.40
2018-04-29T16:20:57.759Z,26.40
2018-04-29T16:23:25.323Z,26.50
2018-04-29T16:25:52.921Z,26.70
2018-04-29T16:28:21.174Z,27.00
2018-04-29T16:30:49.944Z,27.10
2018-04-29T16:33:17.600Z,27.30
2018-04-29T16:35:46.923Z,27.30
2018-04-29T16:38:14.447Z,27.40
2018-04-29T16:40:43.673Z,27.30
2018-04-29T16:43:12.912Z,27.20
2018-04-29T16:45:43.325Z,27.20
2018-04-29T16:48:15.870Z,27.40
2018-04-29T16:50:46.731Z,27.10
2018-04-29T16:53:16.776Z,27.10
2018-04-29T16:55:46.103Z,27.80
2018-04-29T16:58:14.652Z,27.30
2018-04-29T17:03:57.868Z,27.40
2018-04-29T17:06:25.470Z,27.50
2018-04-29T17:08:54.774Z,27.60
2018-04-29T17:11:22.547Z,27.50
2018-04-29T17:13:50.020Z,27.50
2018-04-29T17:16:17.480Z,27.40
2018-04-29T17:18:44.953Z,27.40
2018-04-29T17:21:12.511Z,27.20
2018-04-29T17:23:40.899Z,27.20
2018-04-29T17:26:08.376Z,27.10
2018-04-29T17:28:36.625Z,27.50
2018-04-29T17:31:04.035Z,27.40
2018-04-29T17:33:31.571Z,27.40
2018-04-29T17:35:59.299Z,27.60
2018-04-29T17:38:26.852Z,27.60
2018-04-29T17:40:54.266Z,27.60
2018-04-29T17:43:21.873Z,27.70
2018-04-29T17:45:49.333Z,27.70
2018-04-29T17:48:16.917Z,27.80
2018-04-29T17:50:44.253Z,27.90
2018-04-29T17:53:11.804Z,28.00
2018-04-29T17:55:40.827Z,28.10
2018-04-29T17:58:08.373Z,28.20
2018-04-29T18:00:35.821Z,28.50
2018-04-29T18:03:03.496Z,28.40
2018-04-29T18:05:31.095Z,28.40
2018-04-29T18:07:58.454Z,28.20
2018-04-29T18:10:26.010Z,28.20
2018-04-29T18:12:53.955Z,28.10
2018-04-29T18:15:22.153Z,28.40
2018-04-29T18:17:49.608Z,28.10
2018-04-29T18:20:17.068Z,28.10
2018-04-29T18:22:44.497Z,28.20
2018-04-29T18:25:13.550Z,28.60
2018-04-29T18:27:41.134Z,28.50
2018-04-29T18:30:09.478Z,28.70
2018-04-29T18:32:37.363Z,28.50
2018-04-29T18:35:05.036Z,28.30
2018-04-29T18:37:34.544Z,28.40
2018-04-29T18:40:05.017Z,28.40
2018-04-29T18:42:32.471Z,28.50
2018-04-29T18:44:59.977Z,28.40
2018-04-29T18:47:27.485Z,28.60
2018-04-29T18:49:54.977Z,28.80
2018-04-29T18:52:22.464Z,29.00
2018-04-29T18:54:50.228Z,28.90
2018-04-29T18:57:18.462Z,30.10
2018-04-29T18:59:46.034Z,29.20
2018-04-29T19:04:43.686Z,29.40
2018-04-29T19:09:40.442Z,29.60
2018-04-29T19:12:08.796Z,29.50
2018-04-29T19:14:36.500Z,29.90
2018-04-29T19:22:01.029Z,30.60
2018-04-29T19:24:29.210Z,30.00
2018-04-29T19:26:56.726Z,31.30
2018-04-29T19:29:24.977Z,31.10
2018-04-29T19:31:52.488Z,30.80
2018-04-29T19:34:20.093Z,31.00
2018-04-29T19:36:47.659Z,32.00
2018-04-29T19:39:16.061Z,31.70
2018-04-29T19:41:43.751Z,32.50
2018-04-29T19:44:11.221Z,31.80
2018-04-29T19:46:38.813Z,31.60
2018-04-29T19:49:06.373Z,31.60
2018-04-29T19:51:34.917Z,32.70
2018-04-29T19:54:03.298Z,31.50
2018-04-29T19:56:30.775Z,33.40
2018-04-29T19:58:58.226Z,32.70
2018-04-29T20:01:26.377Z,31.60
2018-04-29T20:06:25.226Z,32.70
2018-04-29T20:08:52.865Z,32.40
2018-04-29T20:11:20.266Z,32.30
2018-04-29T20:13:48.479Z,34.00
2018-04-29T20:18:46.136Z,33.20
2018-04-29T20:21:13.736Z,33.80
2018-04-29T20:23:41.048Z,33.90
2018-04-29T20:26:08.529Z,32.60
2018-04-29T20:28:35.899Z,33.10
2018-04-29T20:31:03.381Z,34.60
2018-04-29T20:33:31.420Z,32.70
2018-04-29T20:35:59.641Z,34.30
2018-04-29T20:38:27.742Z,33.50
2018-04-29T20:40:55.210Z,33.60
2018-04-29T20:48:20.247Z,36.60
2018-04-29T20:55:46.985Z,34.50
2018-04-29T21:00:42.632Z,36.00
2018-04-29T21:03:10.638Z,34.90
2018-04-29T21:05:38.916Z,37.40
2018-04-29T21:08:08.163Z,36.90
2018-04-29T21:10:35.538Z,36.40
2018-04-29T21:13:02.991Z,34.60
2018-04-29T21:15:30.330Z,37.50
2018-04-29T21:17:57.611Z,34.10
2018-04-29T21:20:25.327Z,34.90
2018-04-29T21:22:52.927Z,35.60
2018-04-29T21:25:20.370Z,38.50
2018-04-29T21:27:47.757Z,35.30
2018-04-29T21:30:15.295Z,37.00
2018-04-29T21:32:42.664Z,36.20
2018-04-29T21:35:09.981Z,36.80
2018-04-29T21:37:37.373Z,34.60
2018-04-29T21:40:04.763Z,35.10
2018-04-29T21:42:32.082Z,35.90
2018-04-29T21:45:00.141Z,36.30
2018-04-29T21:47:27.618Z,39.40
2018-04-29T21:49:55.721Z,36.40
2018-04-29T21:52:23.051Z,36.00
2018-04-29T21:54:51.227Z,37.00
2018-04-29T21:57:18.671Z,37.70
2018-04-29T21:59:46.874Z,37.30
2018-04-29T22:02:14.159Z,37.90
2018-04-29T22:04:41.610Z,39.20
2018-04-29T22:07:08.926Z,36.10
2018-04-29T22:09:36.400Z,37.40
2018-04-29T22:12:03.755Z,36.70
2018-04-29T22:14:31.383Z,35.50
2018-04-29T22:19:27.093Z,35.10
2018-04-29T22:21:54.386Z,35.50
2018-04-29T22:24:22.409Z,36.30
2018-04-29T22:26:49.954Z,35.40
2018-04-29T22:31:45.706Z,35.40
2018-04-29T22:34:13.810Z,35.80
2018-04-29T22:39:10.475Z,34.70
2018-04-29T22:41:37.812Z,34.10
2018-04-29T22:46:33.515Z,34.60
2018-04-29T22:49:01.586Z,34.40
2018-04-29T22:51:28.952Z,34.00
2018-04-29T22:53:56.280Z,34.70
2018-04-29T22:56:23.722Z,36.50
2018-04-29T22:58:51.103Z,35.20
2018-04-29T23:01:19.318Z,35.30
2018-04-29T23:03:46.728Z,34.10
2018-04-29T23:08:43.170Z,36.70
2018-04-29T23:11:11.540Z,36.70
2018-04-29T23:13:39.030Z,36.90
2018-04-29T23:18:34.814Z,38.40
2018-04-29T23:21:02.223Z,38.60
2018-04-29T23:23:30.449Z,38.40
2018-04-29T23:25:57.907Z,38.90
2018-04-29T23:28:25.306Z,40.30
2018-04-29T23:33:20.976Z,41.10
2018-04-29T23:35:48.407Z,41.20
2018-04-29T23:38:16.722Z,40.60
2018-04-29T23:40:44.129Z,40.10
2018-04-29T23:45:39.868Z,40.10
2018-04-29T23:48:07.586Z,40.10
2018-04-29T23:53:03.355Z,41.90
2018-04-29T23:55:31.566Z,42.20
2018-04-29T23:57:59.118Z,41.70
